Time;durP1;ratioP1;P1;durP2;ratioP2;P2;SDS_P1;SDS_P2;PMS_P1;PMS_P2;Temp;Humidity;BMP_temperature;BMP_pressure;BME280_temperature;BME280_humidity;BME280_pressure;Samples;Min_cycle;Max_cycle;Signal;HPM_P1;HPM_P2
2023/07/24 00:00:44;;;;;;;9.68;4.00;;;19.70;99.90;;;;;;4164991;28;20234;-91
2023/07/24 00:02:45;;;;;;;10.77;4.35;;;19.90;99.90;;;;;;4165160;28;20195;-91
2023/07/24 00:04:45;;;;;;;6.70;4.18;;;19.90;99.90;;;;;;4164735;28;20247;-91
2023/07/24 00:06:46;;;;;;;16.65;4.30;;;19.80;99.90;;;;;;4181097;28;20223;-92
2023/07/24 00:08:47;;;;;;;9.20;4.40;;;19.90;99.90;;;;;;4181179;28;20261;-92
2023/07/24 00:10:48;;;;;;;13.85;4.68;;;19.90;99.90;;;;;;4164818;28;20680;-91
2023/07/24 00:12:48;;;;;;;10.40;4.47;;;19.90;99.90;;;;;;4164755;28;20164;-91
2023/07/24 00:14:49;;;;;;;9.30;4.05;;;19.80;99.90;;;;;;4181042;28;20266;-91
2023/07/24 00:16:50;;;;;;;19.50;4.95;;;19.70;99.90;;;;;;4164700;28;20175;-91
2023/07/24 00:18:51;;;;;;;13.57;4.50;;;19.80;99.90;;;;;;4164580;28;20203;-91
2023/07/24 00:20:52;;;;;;;10.95;4.68;;;19.80;99.90;;;;;;4164594;28;20165;-94
2023/07/24 00:22:53;;;;;;;11.13;4.65;;;19.90;99.90;;;;;;4180887;28;20187;-91
2023/07/24 00:24:53;;;;;;;8.25;4.50;;;19.80;99.90;;;;;;4164667;28;20161;-90
2023/07/24 00:26:54;;;;;;;7.72;4.35;;;19.70;99.90;;;;;;4164666;28;20180;-90
2023/07/24 00:28:55;;;;;;;9.27;5.00;;;19.70;99.90;;;;;;4164174;28;20188;-90
2023/07/24 00:30:56;;;;;;;6.00;4.45;;;19.80;99.90;;;;;;4181026;28;20213;-90
2023/07/24 00:32:56;;;;;;;9.05;4.25;;;19.70;99.90;;;;;;4164511;28;20164;-90
2023/07/24 00:34:57;;;;;;;9.15;4.68;;;19.80;99.90;;;;;;4164527;28;20238;-91
2023/07/24 00:36:58;;;;;;;10.57;4.25;;;19.80;99.90;;;;;;4164590;28;20246;-90
2023/07/24 00:38:59;;;;;;;12.43;4.03;;;19.70;99.90;;;;;;4180969;28;20199;-91
2023/07/24 00:40:59;;;;;;;8.40;3.95;;;19.70;99.90;;;;;;4181226;28;20664;-90
2023/07/24 00:43:00;;;;;;;7.93;3.95;;;19.70;99.90;;;;;;4180870;28;20168;-91
2023/07/24 00:45:03;;;;;;;11.18;3.83;;;19.70;99.90;;;;;;4180888;28;20160;-90
2023/07/24 00:47:04;;;;;;;8.18;3.90;;;19.70;99.90;;;;;;4180935;28;20241;-90
2023/07/24 00:49:05;;;;;;;9.65;3.83;;;19.70;99.90;;;;;;4200333;28;20187;-90
2023/07/24 00:51:07;;;;;;;12.18;3.70;;;19.80;99.90;;;;;;4167740;28;20681;-91
2023/07/24 00:53:10;;;;;;;11.10;3.88;;;19.80;99.90;;;;;;4167989;28;20613;-91
2023/07/24 00:55:13;;;;;;;15.95;4.28;;;19.80;99.90;;;;;;4200758;28;20278;-91
2023/07/24 00:57:16;;;;;;;4.63;3.17;;;19.90;99.90;;;;;;4184306;28;20245;-90
2023/07/24 00:59:17;;;;;;;7.30;4.22;;;19.80;99.90;;;;;;4184244;28;20192;-91
2023/07/24 01:01:18;;;;;;;7.97;4.00;;;19.80;99.90;;;;;;4183825;28;20168;-89
2023/07/24 01:03:19;;;;;;;12.18;4.55;;;19.70;99.90;;;;;;4184238;28;20218;-90
2023/07/24 01:05:21;;;;;;;11.15;4.10;;;19.60;99.90;;;;;;4183886;28;20172;-90
2023/07/24 01:07:21;;;;;;;10.98;4.22;;;19.70;99.90;;;;;;4184025;28;20171;-90
2023/07/24 01:09:22;;;;;;;8.85;4.10;;;19.50;99.90;;;;;;4183936;28;20187;-91
2023/07/24 01:11:36;;;;;;;8.32;3.58;;;19.60;99.90;;;;;;4183991;28;20171;-90
2023/07/24 01:13:43;;;;;;;5.10;2.60;;;19.60;99.90;;;;;;4167367;28;20167;-90
2023/07/24 01:16:09;;;;;;;5.03;2.35;;;19.40;99.90;;;;;;4200256;28;20206;-91
2023/07/24 01:18:13;;;;;;;3.05;1.75;;;19.30;99.90;;;;;;4183965;28;20676;-92
2023/07/24 01:20:16;;;;;;;4.32;1.95;;;19.40;99.90;;;;;;4183763;28;20194;-91
2023/07/24 01:22:20;;;;;;;2.22;1.60;;;19.50;99.90;;;;;;4200258;28;20516;-92
2023/07/24 01:24:33;;;;;;;4.40;1.50;;;19.50;99.90;;;;;;4167056;28;20242;-93
2023/07/24 01:26:34;;;;;;;1.63;1.40;;;19.40;99.90;;;;;;4167301;28;20522;-92
2023/07/24 01:28:35;;;;;;;1.80;1.20;;;19.30;99.90;;;;;;4166814;28;20196;-94
2023/07/24 01:30:35;;;;;;;4.25;1.38;;;19.20;99.90;;;;;;4184195;28;20172;-95
2023/07/24 01:32:37;;;;;;;3.10;1.20;;;19.30;99.90;;;;;;4167002;28;20180;-93
2023/07/24 01:34:38;;;;;;;2.15;1.20;;;19.30;99.90;;;;;;4184515;28;20174;-93
2023/07/24 01:36:48;;;;;;;1.80;1.10;;;19.30;99.90;;;;;;4183550;28;20212;-95
2023/07/24 01:38:50;;;;;;;3.67;1.00;;;19.50;99.90;;;;;;4166712;28;20537;-94
2023/07/24 01:40:54;;;;;;;1.13;0.90;;;19.30;99.90;;;;;;4167085;28;20271;-94
2023/07/24 01:42:55;;;;;;;1.55;0.85;;;19.40;99.90;;;;;;4166850;28;20175;-93
2023/07/24 01:45:04;;;;;;;1.42;0.90;;;19.50;99.90;;;;;;4183184;28;20164;-92
2023/07/24 01:47:08;;;;;;;1.00;0.88;;;19.60;99.90;;;;;;4167099;28;20174;-95
2023/07/24 01:49:08;;;;;;;1.58;1.00;;;19.60;99.90;;;;;;4183335;28;20191;-94
2023/07/24 01:51:09;;;;;;;2.70;1.23;;;19.60;99.90;;;;;;4166838;28;20222;-94
2023/07/24 01:53:11;;;;;;;2.15;1.10;;;19.60;99.90;;;;;;4166940;28;20168;-93
2023/07/24 01:55:17;;;;;;;3.05;1.13;;;19.50;99.90;;;;;;4167014;28;20251;-93
2023/07/24 01:57:18;;;;;;;1.17;0.90;;;19.20;99.90;;;;;;4199833;28;20203;-93
2023/07/24 01:59:19;;;;;;;2.75;1.23;;;19.00;99.90;;;;;;4182181;28;20186;-94
2023/07/24 02:01:23;;;;;;;5.00;1.10;;;18.80;99.90;;;;;;4183105;28;20190;-94
2023/07/24 02:03:29;;;;;;;1.83;1.10;;;19.00;99.90;;;;;;4167002;28;20179;-94
2023/07/24 02:05:34;;;;;;;3.10;1.17;;;18.90;99.90;;;;;;4199092;28;20613;-94
2023/07/24 02:07:43;;;;;;;1.45;1.00;;;19.00;99.90;;;;;;4166997;28;20188;-94
2023/07/24 02:09:46;;;;;;;5.50;1.30;;;18.90;99.90;;;;;;4166590;28;20195;-94
2023/07/24 02:12:01;;;;;;;3.95;1.23;;;18.70;99.90;;;;;;4166525;28;20664;-94
2023/07/24 02:14:08;;;;;;;2.78;1.27;;;18.70;99.90;;;;;;4199182;28;20174;-94
2023/07/24 02:16:50;;;;;;;1.48;1.10;;;18.70;99.90;;;;;;4182890;28;20175;-93
2023/07/24 02:19:40;;;;;;;1.60;1.20;;;18.80;99.90;;;;;;4197871;28;20211;-95
2023/07/24 02:21:59;;;;;;;2.22;1.20;;;18.90;99.90;;;;;;4166379;28;20198;-95
2023/07/24 02:24:33;;;;;;;3.22;1.40;;;18.90;99.90;;;;;;4183002;28;20179;-94
2023/07/24 02:27:34;;;;;;;;;;;;;;;;;;;;;
2023/07/24 02:30:30;;;;;;;3.45;1.30;;;18.70;99.90;;;;;;4168636;28;20254;-95
2023/07/24 02:32:33;;;;;;;2.67;1.20;;;18.70;99.90;;;;;;4179558;28;20294;-94
2023/07/24 02:34:34;;;;;;;5.25;1.08;;;18.70;99.90;;;;;;4214709;22;20222;-87
2023/07/24 02:36:36;;;;;;;3.15;1.38;;;18.70;99.90;;;;;;4198924;28;20182;-87
2023/07/24 02:38:36;;;;;;;1.73;1.20;;;18.70;99.90;;;;;;4198672;28;20678;-87
2023/07/24 02:40:40;;;;;;;4.18;1.23;;;18.70;99.90;;;;;;4198482;28;20262;-87
2023/07/24 02:42:40;;;;;;;3.83;1.30;;;18.70;99.90;;;;;;4198912;28;20175;-87
2023/07/24 02:44:41;;;;;;;6.45;1.30;;;18.80;99.90;;;;;;4182090;28;20184;-86
2023/07/24 02:46:42;;;;;;;2.25;1.25;;;18.90;99.90;;;;;;4199623;28;20180;-87
2023/07/24 02:48:42;;;;;;;3.17;1.33;;;18.90;99.90;;;;;;4199747;28;20199;-87
2023/07/24 02:50:43;;;;;;;2.15;1.50;;;19.00;99.90;;;;;;4181758;28;20562;-87
2023/07/24 02:52:44;;;;;;;2.85;1.30;;;18.90;99.90;;;;;;4181937;28;20587;-87
2023/07/24 02:54:44;;;;;;;2.10;1.48;;;18.70;99.90;;;;;;4198460;28;20253;-87
2023/07/24 02:56:45;;;;;;;4.13;1.30;;;18.70;99.90;;;;;;4199465;28;20174;-86
2023/07/24 02:58:46;;;;;;;3.38;1.25;;;18.70;99.90;;;;;;4181679;28;20203;-86
2023/07/24 03:00:47;;;;;;;4.20;1.40;;;18.70;99.90;;;;;;4181765;28;20168;-87
2023/07/24 03:02:47;;;;;;;1.88;1.17;;;18.80;99.90;;;;;;4181773;28;20226;-87
2023/07/24 03:04:48;;;;;;;2.40;1.40;;;18.70;99.90;;;;;;4198170;28;20285;-86
2023/07/24 03:06:49;;;;;;;2.15;1.48;;;18.60;99.90;;;;;;4198193;28;20285;-86
2023/07/24 03:08:49;;;;;;;2.22;1.38;;;18.50;99.90;;;;;;4181688;28;20549;-87
2023/07/24 03:10:50;;;;;;;1.40;1.23;;;18.40;99.90;;;;;;4198226;28;20162;-86
2023/07/24 03:12:51;;;;;;;2.22;1.42;;;18.10;99.90;;;;;;4181661;28;20171;-86
2023/07/24 03:14:51;;;;;;;1.88;1.48;;;18.20;99.90;;;;;;4197814;28;20171;-86
2023/07/24 03:16:52;;;;;;;2.22;1.30;;;18.10;99.90;;;;;;4197963;28;20171;-87
2023/07/24 03:18:53;;;;;;;2.38;1.50;;;18.10;99.90;;;;;;4181487;28;20223;-86
2023/07/24 03:20:54;;;;;;;5.22;1.50;;;18.10;99.90;;;;;;4197928;28;20230;-87
2023/07/24 03:22:54;;;;;;;2.50;1.50;;;18.10;99.90;;;;;;4198030;28;20178;-87
2023/07/24 03:24:55;;;;;;;3.97;1.63;;;18.20;99.90;;;;;;4198224;28;20174;-86
2023/07/24 03:26:56;;;;;;;4.72;1.40;;;18.30;99.90;;;;;;4197814;28;20539;-86
2023/07/24 03:28:56;;;;;;;6.20;1.85;;;18.30;99.90;;;;;;4181067;28;20214;-87
2023/07/24 03:30:57;;;;;;;3.30;1.52;;;18.50;99.90;;;;;;4181225;28;20171;-86
2023/07/24 03:32:58;;;;;;;3.92;1.40;;;18.50;99.90;;;;;;4197913;28;20175;-87
2023/07/24 03:34:59;;;;;;;4.40;1.40;;;18.30;99.90;;;;;;4181316;28;20187;-86
2023/07/24 03:36:59;;;;;;;2.03;1.48;;;18.20;99.90;;;;;;4197596;28;20258;-86
2023/07/24 03:39:00;;;;;;;3.75;1.50;;;18.30;99.90;;;;;;4197467;28;20237;-87
2023/07/24 03:41:01;;;;;;;2.45;1.52;;;18.30;99.90;;;;;;4197474;28;20174;-86
2023/07/24 03:43:04;;;;;;;2.03;1.42;;;18.20;99.90;;;;;;4181553;28;20532;-86
2023/07/24 03:45:06;;;;;;;3.28;1.40;;;18.10;99.90;;;;;;4197466;28;20177;-86
2023/07/24 03:47:07;;;;;;;3.72;1.30;;;18.10;99.90;;;;;;4181170;28;20167;-86
2023/07/24 03:49:08;;;;;;;3.05;1.38;;;18.20;99.90;;;;;;4181053;28;20199;-86
2023/07/24 03:51:09;;;;;;;3.85;1.38;;;18.00;99.90;;;;;;4180983;28;20163;-87
2023/07/24 03:53:09;;;;;;;2.55;1.20;;;18.00;99.90;;;;;;4197696;28;20272;-86
2023/07/24 03:55:10;;;;;;;1.80;1.50;;;18.30;99.90;;;;;;4181174;28;20536;-86
2023/07/24 03:57:11;;;;;;;4.75;1.20;;;18.20;99.90;;;;;;4180977;28;20207;-87
2023/07/24 03:59:11;;;;;;;2.42;1.40;;;18.00;99.90;;;;;;4181025;28;20268;-86
2023/07/24 04:01:12;;;;;;;1.75;1.35;;;17.90;99.90;;;;;;4197715;28;20178;-86
2023/07/24 04:03:13;;;;;;;3.55;1.13;;;17.90;99.90;;;;;;4180738;28;20167;-86
2023/07/24 04:05:14;;;;;;;2.42;1.45;;;18.00;99.90;;;;;;4197521;28;20659;-86
2023/07/24 04:07:14;;;;;;;1.80;1.10;;;18.20;99.90;;;;;;4197378;28;20171;-86
2023/07/24 04:09:15;;;;;;;4.18;1.20;;;18.20;99.90;;;;;;4197410;28;20583;-85
2023/07/24 04:11:16;;;;;;;1.55;1.10;;;18.20;99.90;;;;;;4180742;28;20171;-86
2023/07/24 04:13:16;;;;;;;3.03;1.10;;;18.20;99.90;;;;;;4197494;28;20194;-86
2023/07/24 04:15:17;;;;;;;4.18;1.20;;;18.10;99.90;;;;;;4180674;28;20203;-87
2023/07/24 04:17:18;;;;;;;2.10;1.25;;;18.10;99.90;;;;;;4180929;28;20261;-87
2023/07/24 04:19:18;;;;;;;2.17;1.13;;;18.00;99.90;;;;;;4197385;28;20671;-87
2023/07/24 04:21:19;;;;;;;1.55;1.30;;;17.90;99.90;;;;;;4197336;28;20685;-86
2023/07/24 04:23:20;;;;;;;2.95;1.13;;;18.00;99.90;;;;;;4196673;28;20667;-86
2023/07/24 04:25:20;;;;;;;2.80;1.30;;;18.20;99.90;;;;;;4180700;28;20183;-86
2023/07/24 04:27:21;;;;;;;1.55;1.35;;;18.20;99.90;;;;;;4180670;28;20168;-86
2023/07/24 04:29:24;;;;;;;3.10;1.40;;;18.20;99.90;;;;;;4180339;28;20202;-86
2023/07/24 04:31:25;;;;;;;1.70;1.48;;;18.10;99.90;;;;;;4180555;28;20263;-87
2023/07/24 04:33:27;;;;;;;1.92;1.20;;;18.10;99.90;;;;;;4180531;28;20167;-94
2023/07/24 04:35:27;;;;;;;1.67;1.38;;;18.20;99.90;;;;;;4180556;28;20183;-86
2023/07/24 04:37:28;;;;;;;2.95;1.30;;;18.10;99.90;;;;;;4197389;28;20205;-86
2023/07/24 04:39:29;;;;;;;8.27;1.20;;;18.30;99.90;;;;;;4196957;28;20214;-87
2023/07/24 04:41:29;;;;;;;4.15;1.02;;;18.50;99.90;;;;;;4180406;28;20221;-86
2023/07/24 04:43:30;;;;;;;4.53;1.23;;;18.50;99.90;;;;;;4180482;28;20172;-87
2023/07/24 04:45:31;;;;;;;1.70;1.20;;;18.50;99.90;;;;;;4180562;28;20229;-86
2023/07/24 04:47:31;;;;;;;1.55;1.00;;;18.60;99.90;;;;;;4180539;28;20172;-86
2023/07/24 04:49:32;;;;;;;1.15;1.05;;;18.60;99.90;;;;;;4196590;28;20203;-86
2023/07/24 04:51:33;;;;;;;1.80;1.20;;;18.40;99.90;;;;;;4180199;28;20588;-86
2023/07/24 04:53:34;;;;;;;2.58;1.52;;;18.20;99.90;;;;;;4180135;28;20255;-86
2023/07/24 04:55:34;;;;;;;1.98;1.50;;;18.20;99.90;;;;;;4180287;28;20163;-86
2023/07/24 04:57:35;;;;;;;2.60;1.70;;;18.10;99.90;;;;;;4196644;28;20210;-86
2023/07/24 04:59:36;;;;;;;2.08;1.60;;;18.20;99.90;;;;;;4196589;28;20220;-86
2023/07/24 05:01:37;;;;;;;3.15;1.63;;;18.50;99.90;;;;;;4196829;28;20647;-86
2023/07/24 05:03:38;;;;;;;1.52;1.25;;;18.60;99.90;;;;;;4196870;28;20210;-86
2023/07/24 05:05:39;;;;;;;2.85;1.63;;;18.50;99.90;;;;;;4198009;28;20650;-87
2023/07/24 05:07:39;;;;;;;2.50;1.45;;;18.60;99.90;;;;;;4180633;28;20172;-87
2023/07/24 05:09:40;;;;;;;3.92;1.70;;;18.50;99.90;;;;;;4196898;28;20197;-87
2023/07/24 05:11:44;;;;;;;2.03;1.40;;;18.40;99.90;;;;;;4180326;28;20178;-87
2023/07/24 05:13:45;;;;;;;1.67;1.40;;;18.40;99.90;;;;;;4196595;28;20170;-87
2023/07/24 05:15:45;;;;;;;5.85;1.40;;;18.50;99.90;;;;;;4180182;28;20505;-87
2023/07/24 05:17:46;;;;;;;4.15;1.70;;;18.50;99.90;;;;;;4180240;28;20626;-87
2023/07/24 05:19:47;;;;;;;2.15;1.50;;;18.60;99.90;;;;;;4180048;28;20195;-87
2023/07/24 05:21:47;;;;;;;2.65;1.58;;;18.80;99.90;;;;;;4180361;28;20544;-87
2023/07/24 05:23:48;;;;;;;6.85;1.60;;;18.70;99.90;;;;;;4180087;28;20172;-86
2023/07/24 05:25:57;;;;;;;4.22;1.52;;;18.50;99.90;;;;;;4196847;28;20274;-86
2023/07/24 05:27:58;;;;;;;7.32;1.88;;;18.60;99.90;;;;;;4180380;28;20234;-94
2023/07/24 05:29:59;;;;;;;5.65;1.77;;;18.80;99.90;;;;;;4179919;28;20203;-87
2023/07/24 05:31:59;;;;;;;5.75;1.60;;;18.90;99.90;;;;;;4180188;28;20592;-87
2023/07/24 05:34:00;;;;;;;2.83;1.80;;;18.70;99.90;;;;;;4181118;28;20262;-85
2023/07/24 05:36:03;;;;;;;5.75;1.88;;;18.60;99.90;;;;;;4199524;28;20167;-85
2023/07/24 05:38:03;;;;;;;2.67;1.58;;;18.70;99.90;;;;;;4182634;28;20211;-86
2023/07/24 05:40:05;;;;;;;7.30;1.80;;;18.70;99.90;;;;;;4182463;28;20241;-85
2023/07/24 05:42:06;;;;;;;3.53;1.67;;;19.00;99.90;;;;;;4199240;28;20258;-85
2023/07/24 05:44:06;;;;;;;6.30;1.80;;;18.70;99.90;;;;;;4182766;28;20198;-85
2023/07/24 05:46:07;;;;;;;4.22;1.83;;;18.70;99.90;;;;;;4199406;28;20171;-85
2023/07/24 05:48:08;;;;;;;4.32;1.67;;;18.70;99.90;;;;;;4182650;28;20168;-85
2023/07/24 05:50:09;;;;;;;6.68;2.25;;;18.60;99.90;;;;;;4182557;28;20202;-85
2023/07/24 05:52:09;;;;;;;3.30;2.17;;;18.70;99.90;;;;;;4201694;28;20650;-85
2023/07/24 05:54:10;;;;;;;4.00;2.20;;;18.70;99.90;;;;;;4199351;28;20228;-85
2023/07/24 05:56:11;;;;;;;7.43;2.13;;;18.70;99.90;;;;;;4182651;28;20163;-85
2023/07/24 05:58:11;;;;;;;4.13;1.73;;;18.70;99.90;;;;;;4200310;28;20221;-85
2023/07/24 06:00:12;;;;;;;6.13;2.58;;;18.90;99.90;;;;;;4198913;28;20648;-85
2023/07/24 06:02:13;;;;;;;9.88;2.33;;;19.00;99.90;;;;;;4199345;28;20179;-85
2023/07/24 06:04:14;;;;;;;2.83;2.08;;;19.10;99.90;;;;;;4182181;28;20175;-85
2023/07/24 06:06:14;;;;;;;6.45;2.30;;;19.10;99.90;;;;;;4198745;28;20163;-85
2023/07/24 06:08:15;;;;;;;4.00;2.25;;;19.00;99.90;;;;;;4182377;28;20262;-85
2023/07/24 06:10:16;;;;;;;7.00;2.40;;;19.00;99.90;;;;;;4182383;28;20195;-85
2023/07/24 06:12:16;;;;;;;4.90;2.38;;;18.80;99.90;;;;;;4182310;28;20187;-86
2023/07/24 06:14:17;;;;;;;4.72;2.58;;;18.70;99.90;;;;;;4198481;28;20162;-85
2023/07/24 06:16:18;;;;;;;4.82;2.50;;;18.80;99.90;;;;;;4198676;28;20273;-85
2023/07/24 06:18:19;;;;;;;6.45;2.92;;;18.90;99.90;;;;;;4198649;28;20309;-85
2023/07/24 06:20:19;;;;;;;6.97;2.55;;;18.80;99.90;;;;;;4182029;28;20163;-85
2023/07/24 06:22:20;;;;;;;6.90;2.28;;;18.90;99.90;;;;;;4198987;28;20183;-85
2023/07/24 06:24:21;;;;;;;3.67;2.22;;;18.80;99.90;;;;;;4182308;28;20611;-86
2023/07/24 06:26:22;;;;;;;4.22;2.50;;;19.10;99.90;;;;;;4182194;28;20589;-86
2023/07/24 06:28:22;;;;;;;4.82;2.60;;;19.20;99.90;;;;;;4181890;28;20178;-91
2023/07/24 06:30:23;;;;;;;5.13;2.60;;;19.40;99.90;;;;;;4181770;28;20181;-86
2023/07/24 06:32:24;;;;;;;6.43;2.65;;;19.50;99.90;;;;;;4198442;28;20173;-85
2023/07/24 06:34:25;;;;;;;4.70;2.40;;;19.40;99.90;;;;;;4198540;28;20193;-86
2023/07/24 06:36:26;;;;;;;5.45;2.10;;;19.30;99.90;;;;;;4198270;28;20167;-86
2023/07/24 06:38:27;;;;;;;6.55;2.50;;;19.20;99.90;;;;;;4198513;28;20222;-86
2023/07/24 06:40:27;;;;;;;3.83;1.98;;;19.50;99.90;;;;;;4198629;28;20647;-85
2023/07/24 06:42:28;;;;;;;6.93;2.00;;;19.40;99.90;;;;;;4198654;28;20182;-86
2023/07/24 06:44:29;;;;;;;3.65;1.92;;;19.60;99.90;;;;;;4181821;28;20263;-85
2023/07/24 06:46:29;;;;;;;4.25;1.90;;;19.80;99.90;;;;;;4181299;28;20182;-92
2023/07/24 06:48:30;;;;;;;7.65;2.10;;;19.50;99.90;;;;;;4181664;28;20168;-86
2023/07/24 06:50:30;;;;;;;4.35;2.20;;;19.50;99.90;;;;;;4198388;28;20175;-86
2023/07/24 06:52:32;;;;;;;4.75;1.90;;;19.50;99.90;;;;;;4181980;28;20262;-90
2023/07/24 06:54:33;;;;;;;4.30;2.00;;;19.50;99.90;;;;;;4198440;28;20175;-85
2023/07/24 06:56:34;;;;;;;3.47;1.73;;;19.30;99.90;;;;;;4198151;28;20198;-86
2023/07/24 06:58:36;;;;;;;5.55;2.42;;;19.20;99.90;;;;;;4181530;28;20258;-86
2023/07/24 07:00:37;;;;;;;3.88;2.10;;;19.40;99.90;;;;;;4181665;28;20176;-86
2023/07/24 07:02:38;;;;;;;4.35;2.10;;;19.60;99.90;;;;;;4198171;28;20206;-86
2023/07/24 07:04:39;;;;;;;3.67;1.98;;;20.10;99.90;;;;;;4181833;28;20174;-85
2023/07/24 07:06:40;;;;;;;5.03;2.10;;;20.30;99.90;;;;;;4197708;28;20183;-91
2023/07/24 07:08:40;;;;;;;4.95;2.60;;;20.40;99.90;;;;;;4181522;28;20191;-86
2023/07/24 07:10:41;;;;;;;3.97;1.90;;;20.60;99.90;;;;;;4197835;28;20179;-86
2023/07/24 07:12:42;;;;;;;6.30;2.40;;;21.20;99.90;;;;;;4181492;28;20164;-86
2023/07/24 07:14:42;;;;;;;7.40;2.00;;;21.50;99.90;;;;;;4181333;28;20184;-85
2023/07/24 07:16:44;;;;;;;7.45;2.45;;;21.90;99.90;;;;;;4181527;28;20579;-86
2023/07/24 07:18:45;;;;;;;5.00;2.20;;;21.70;99.90;;;;;;4181179;28;20219;-85
2023/07/24 07:20:46;;;;;;;6.35;2.10;;;21.70;99.90;;;;;;4181545;28;20224;-86
2023/07/24 07:22:47;;;;;;;7.03;2.40;;;21.90;99.90;;;;;;4181522;28;20175;-87
2023/07/24 07:24:48;;;;;;;6.63;2.22;;;21.80;99.90;;;;;;4197972;28;20173;-86
2023/07/24 07:26:49;;;;;;;6.22;2.17;;;22.10;99.90;;;;;;4197951;28;20170;-86
2023/07/24 07:28:50;;;;;;;6.18;2.63;;;22.20;99.90;;;;;;4181098;28;20222;-86
2023/07/24 07:30:51;;;;;;;5.70;2.05;;;22.20;99.90;;;;;;4197890;28;20199;-86
2023/07/24 07:32:51;;;;;;;4.22;2.15;;;22.00;99.90;;;;;;4181174;28;20686;-85
2023/07/24 07:34:52;;;;;;;4.50;2.38;;;22.10;99.90;;;;;;4181214;28;20660;-85
2023/07/24 07:36:53;;;;;;;3.15;2.00;;;22.30;99.90;;;;;;4181117;28;20229;-85
2023/07/24 07:38:53;;;;;;;4.68;2.40;;;21.40;99.90;;;;;;4180952;28;20204;-87
2023/07/24 07:40:54;;;;;;;5.03;2.40;;;21.20;99.90;;;;;;4197219;28;20527;-85
2023/07/24 07:42:56;;;;;;;3.45;2.22;;;21.30;99.90;;;;;;4180861;28;20543;-85
2023/07/24 07:44:56;;;;;;;9.20;2.53;;;21.40;99.90;;;;;;4180911;28;20602;-85
2023/07/24 07:46:57;;;;;;;4.75;2.03;;;21.80;99.90;;;;;;4197636;28;20205;-91
2023/07/24 07:48:58;;;;;;;3.92;2.22;;;22.20;99.90;;;;;;4197392;28;20190;-85
2023/07/24 07:50:58;;;;;;;5.32;2.45;;;22.40;99.90;;;;;;4197715;28;20162;-85
2023/07/24 07:52:59;;;;;;;3.90;2.42;;;22.50;99.90;;;;;;4197450;28;20203;-86
2023/07/24 07:55:00;;;;;;;3.53;2.10;;;22.90;99.90;;;;;;4197444;28;20579;-85
2023/07/24 07:57:01;;;;;;;3.25;2.05;;;23.30;99.90;;;;;;4180077;28;20182;-85
2023/07/24 07:59:01;;;;;;;5.60;2.08;;;23.60;99.90;;;;;;4196576;28;20243;-85
2023/07/24 08:01:06;;;;;;;2.53;1.85;;;23.70;99.90;;;;;;4180698;28;20271;-85
2023/07/24 08:03:06;;;;;;;5.47;2.03;;;22.90;99.90;;;;;;4180563;28;20182;-85
2023/07/24 08:05:08;;;;;;;6.18;2.13;;;22.80;99.90;;;;;;4197387;28;20159;-85
2023/07/24 08:07:09;;;;;;;3.00;1.95;;;22.10;99.90;;;;;;4180792;28;20175;-85
2023/07/24 08:09:10;;;;;;;2.78;2.00;;;21.90;99.90;;;;;;4181260;28;20269;-85
2023/07/24 08:11:10;;;;;;;3.45;2.10;;;21.80;99.90;;;;;;4201193;28;20169;-86
2023/07/24 08:13:11;;;;;;;5.18;2.45;;;21.60;99.90;;;;;;4197415;28;20167;-85
2023/07/24 08:15:12;;;;;;;3.28;1.83;;;21.30;99.90;;;;;;4197465;28;20210;-86
2023/07/24 08:17:12;;;;;;;3.80;2.35;;;21.30;99.90;;;;;;4196677;28;20179;-85
2023/07/24 08:19:13;;;;;;;4.57;2.40;;;21.30;99.90;;;;;;4197062;28;20199;-85
2023/07/24 08:21:14;;;;;;;4.18;2.20;;;21.70;99.90;;;;;;4197778;28;20170;-86
2023/07/24 08:23:15;;;;;;;4.35;2.20;;;21.80;99.90;;;;;;4196495;28;20240;-85
2023/07/24 08:25:16;;;;;;;3.75;2.20;;;21.60;99.90;;;;;;4180476;28;20632;-85
2023/07/24 08:27:17;;;;;;;6.18;2.53;;;21.90;99.90;;;;;;4197063;28;20220;-85
2023/07/24 08:29:17;;;;;;;5.07;2.42;;;22.00;99.90;;;;;;4196671;28;20191;-86
2023/07/24 08:31:18;;;;;;;4.13;2.38;;;22.00;99.90;;;;;;4180294;28;20330;-85
2023/07/24 08:33:19;;;;;;;5.28;2.78;;;22.20;99.90;;;;;;4180048;28;20180;-85
2023/07/24 08:35:19;;;;;;;4.53;2.00;;;22.30;99.90;;;;;;4197105;28;20183;-85
2023/07/24 08:37:20;;;;;;;3.63;2.28;;;22.60;99.90;;;;;;4180052;28;20195;-85
2023/07/24 08:39:21;;;;;;;3.97;1.83;;;22.90;99.90;;;;;;4180053;28;20195;-85
2023/07/24 08:41:21;;;;;;;4.03;1.92;;;22.80;99.90;;;;;;4196888;28;20167;-85
2023/07/24 08:43:22;;;;;;;5.53;2.30;;;23.10;99.90;;;;;;4196883;28;20217;-86
2023/07/24 08:45:24;;;;;;;5.75;2.40;;;23.50;99.90;;;;;;4180194;28;20179;-86
2023/07/24 08:47:25;;;;;;;4.90;1.90;;;23.60;99.90;;;;;;4180342;28;20167;-85
2023/07/24 08:49:28;;;;;;;4.28;2.20;;;23.40;99.90;;;;;;4197646;28;20194;-85
2023/07/24 08:51:30;;;;;;;6.18;1.90;;;23.30;99.90;;;;;;4180043;28;20263;-86
2023/07/24 08:53:36;;;;;;;6.68;1.98;;;23.30;99.90;;;;;;4180006;28;20263;-85
2023/07/24 08:55:39;;;;;;;3.58;2.10;;;23.60;99.90;;;;;;4196710;28;20643;-85
2023/07/24 08:57:39;;;;;;;5.25;2.10;;;23.60;99.90;;;;;;4196853;28;20250;-86
2023/07/24 08:59:40;;;;;;;2.45;1.90;;;23.70;99.90;;;;;;4196675;28;20211;-86
2023/07/24 09:01:41;;;;;;;4.05;2.10;;;23.90;99.90;;;;;;4179941;28;20184;-85
2023/07/24 09:03:41;;;;;;;2.50;1.80;;;23.60;99.90;;;;;;4180129;28;20168;-85
2023/07/24 09:05:42;;;;;;;3.40;1.80;;;23.20;99.90;;;;;;4196712;28;20179;-86
2023/07/24 09:07:44;;;;;;;7.70;2.00;;;23.10;99.90;;;;;;4196081;28;20582;-86
2023/07/24 09:09:49;;;;;;;5.60;2.30;;;23.00;99.90;;;;;;4182594;28;20195;-84
2023/07/24 09:11:51;;;;;;;2.60;1.60;;;23.00;99.90;;;;;;4183357;28;20172;-85
2023/07/24 09:13:52;;;;;;;2.63;1.70;;;22.70;99.90;;;;;;4199656;28;20175;-86
2023/07/24 09:15:53;;;;;;;3.53;2.13;;;23.20;99.90;;;;;;4183140;28;20183;-85
2023/07/24 09:17:54;;;;;;;4.32;2.20;;;23.70;99.90;;;;;;4183110;28;20242;-85
2023/07/24 09:19:58;;;;;;;2.85;1.80;;;24.00;99.90;;;;;;4183102;28;20183;-86
2023/07/24 09:22:16;;;;;;;2.85;1.92;;;24.40;99.90;;;;;;4183245;28;20307;-91
2023/07/24 09:24:17;;;;;;;5.07;1.73;;;24.40;99.90;;;;;;4199651;28;20182;-85
2023/07/24 09:26:17;;;;;;;2.47;1.90;;;24.20;99.90;;;;;;4183020;28;20172;-86
2023/07/24 09:28:19;;;;;;;5.60;2.00;;;24.00;99.90;;;;;;4183066;28;20230;-85
2023/07/24 09:30:23;;;;;;;3.95;1.77;;;23.80;99.90;;;;;;4182927;28;20591;-85
2023/07/24 09:32:26;;;;;;;2.90;1.75;;;23.70;99.90;;;;;;4199564;28;20261;-85
2023/07/24 09:34:27;;;;;;;5.70;1.85;;;23.50;99.90;;;;;;4199276;28;20182;-85
2023/07/24 09:36:38;;;;;;;3.35;1.70;;;23.40;99.90;;;;;;4199512;28;20173;-85
2023/07/24 09:38:40;;;;;;;5.15;1.90;;;23.40;99.90;;;;;;4182785;28;20211;-84
2023/07/24 09:40:47;;;;;;;4.47;1.98;;;23.00;99.90;;;;;;4216329;28;20694;-85
2023/07/24 09:42:47;;;;;;;3.70;1.90;;;22.90;99.90;;;;;;4199383;28;20213;-85
2023/07/24 09:44:48;;;;;;;4.22;2.00;;;22.50;99.90;;;;;;4199257;28;20167;-85
2023/07/24 09:46:49;;;;;;;4.78;1.98;;;22.40;99.90;;;;;;4182566;28;20222;-85
2023/07/24 09:48:50;;;;;;;3.15;1.95;;;21.90;99.90;;;;;;4182727;28;20187;-85
2023/07/24 09:50:59;;;;;;;3.25;2.08;;;21.30;99.90;;;;;;4199291;28;20178;-85
2023/07/24 09:53:00;;;;;;;5.93;2.03;;;21.20;99.90;;;;;;4182729;28;20209;-85
2023/07/24 09:55:03;;;;;;;6.60;1.95;;;21.50;99.90;;;;;;4182624;28;20675;-86
2023/07/24 09:57:04;;;;;;;4.00;1.77;;;21.70;99.90;;;;;;4182624;28;20172;-87
2023/07/24 09:59:06;;;;;;;2.35;1.60;;;22.40;99.90;;;;;;4182247;28;20541;-87
2023/07/24 10:01:09;;;;;;;4.43;1.92;;;22.80;99.90;;;;;;4182481;28;20258;-86
2023/07/24 10:03:10;;;;;;;4.10;1.92;;;23.40;99.90;;;;;;4199022;28;20458;-87
2023/07/24 10:05:11;;;;;;;4.22;1.85;;;24.30;99.90;;;;;;4182548;28;20172;-94
2023/07/24 10:07:13;;;;;;;3.17;2.10;;;25.50;99.90;;;;;;4182425;28;20167;-87
2023/07/24 10:09:15;;;;;;;3.20;1.70;;;26.00;99.90;;;;;;4198855;28;20222;-87
2023/07/24 10:11:16;;;;;;;2.72;1.88;;;26.60;99.90;;;;;;4198809;28;20236;-87
2023/07/24 10:13:18;;;;;;;2.72;1.80;;;26.60;99.90;;;;;;4182541;28;20167;-87
2023/07/24 10:15:19;;;;;;;4.05;2.10;;;26.60;99.90;;;;;;4199124;28;20224;-87
2023/07/24 10:17:40;;;;;;;2.67;1.80;;;26.50;99.90;;;;;;4198961;28;20234;-86
2023/07/24 10:19:45;;;;;;;2.70;2.00;;;25.40;99.90;;;;;;4182054;28;20202;-87
2023/07/24 10:21:47;;;;;;;2.78;2.20;;;24.90;99.90;;;;;;4198190;28;20350;-87
2023/07/24 10:23:48;;;;;;;3.97;2.20;;;24.90;99.90;;;;;;4198856;28;20175;-87
2023/07/24 10:25:52;;;;;;;4.10;2.38;;;24.30;99.90;;;;;;4182989;28;20179;-94
2023/07/24 10:27:52;;;;;;;4.85;2.38;;;24.20;99.90;;;;;;4203891;28;20175;-90
2023/07/24 10:30:02;;;;;;;3.05;2.30;;;24.60;99.90;;;;;;4215447;28;20187;-88
2023/07/24 10:32:03;;;;;;;5.28;2.50;;;24.60;99.90;;;;;;4187617;28;20221;-88
2023/07/24 10:34:05;;;;;;;6.07;2.63;;;24.60;99.90;;;;;;4182489;28;20258;-93
2023/07/24 10:36:10;;;;;;;3.42;2.17;;;24.20;99.90;;;;;;4199375;28;20575;-87
2023/07/24 10:38:12;;;;;;;4.78;2.10;;;24.40;99.90;;;;;;4181996;28;20308;-87